Time;durP1;ratioP1;P1;durP2;ratioP2;P2;SDS_P1;SDS_P2;PMS_P1;PMS_P2;Temp;Humidity;BMP_temperature;BMP_pressure;BME280_temperature;BME280_humidity;BME280_pressure;Samples;Min_cycle;Max_cycle;Signal;HPM_P1;HPM_P2
2021/08/17 00:00:41;;;;;;;44.35;18.45;;;;;;;9.97;85.79;91026.78;5001933;28;20061;-86
2021/08/17 00:03:17;;;;;;;44.65;19.08;;;;;;;9.91;86.68;91023.63;5001772;28;20113;-86
2021/08/17 00:05:56;;;;;;;47.13;18.02;;;;;;;10.12;85.59;91043.66;4985447;28;20595;-87
2021/08/17 00:08:32;;;;;;;49.85;18.88;;;;;;;9.96;86.30;91036.44;5003487;28;20032;-87
2021/08/17 00:11:09;;;;;;;39.72;16.70;;;;;;;9.97;85.62;91035.38;4986705;28;20029;-89
2021/08/17 00:13:48;;;;;;;39.25;16.83;;;;;;;9.99;86.26;91038.41;4987118;28;20049;-87
2021/08/17 00:16:24;;;;;;;45.58;19.13;;;;;;;9.93;84.42;91037.09;5003264;28;20101;-88
2021/08/17 00:18:55;;;;;;;47.17;18.98;;;;;;;9.85;87.08;91037.91;4987167;28;20055;-87
2021/08/17 00:21:31;;;;;;;50.55;19.90;;;;;;;9.89;85.96;91030.22;5019026;28;20159;-87
2021/08/17 00:24:04;;;;;;;42.08;17.90;;;;;;;9.88;84.42;91024.25;5003663;28;20473;-87
2021/08/17 00:26:42;;;;;;;45.83;19.10;;;;;;;9.96;83.74;91033.06;4986271;28;20060;-87
2021/08/17 00:29:15;;;;;;;51.90;19.33;;;;;;;9.86;85.06;91047.25;5020481;28;20025;-86
2021/08/17 00:31:56;;;;;;;53.85;19.95;;;;;;;9.87;86.86;91051.38;5022777;28;20497;-87
2021/08/17 00:34:33;;;;;;;53.05;20.35;;;;;;;9.86;85.43;91052.47;5023297;28;20044;-87
2021/08/17 00:37:13;;;;;;;46.38;19.30;;;;;;;9.65;86.85;91055.09;5016870;28;20022;-86
2021/08/17 00:39:51;;;;;;;46.58;19.08;;;;;;;9.57;85.92;91072.25;5007472;28;20051;-86
2021/08/17 00:42:21;;;;;;;42.58;17.10;;;;;;;9.50;85.97;91072.00;5012154;28;20129;-88
2021/08/17 00:45:02;;;;;;;40.58;16.35;;;;;;;9.65;85.50;91070.69;5009218;28;20405;-87
2021/08/17 00:47:37;;;;;;;40.80;15.23;;;;;;;9.60;86.75;91070.88;5027260;28;20056;-88
2021/08/17 00:50:19;;;;;;;34.15;15.52;;;;;;;9.48;85.83;91068.97;4998218;28;20458;-88
2021/08/17 00:52:58;;;;;;;35.80;14.75;;;;;;;9.29;87.89;91071.22;5003647;28;20492;-87
2021/08/17 00:55:32;;;;;;;40.60;14.20;;;;;;;9.40;86.73;91075.00;5002937;28;20030;-87
2021/08/17 00:58:07;;;;;;;32.38;12.68;;;;;;;9.32;87.74;91073.19;5003710;28;20030;-87
2021/08/17 01:00:40;;;;;;;32.80;13.70;;;;;;;9.27;87.82;91076.00;4988292;28;20030;-88
2021/08/17 01:03:16;;;;;;;28.33;12.77;;;;;;;9.44;87.91;91082.94;4996679;28;20030;-86
2021/08/17 01:05:57;;;;;;;37.40;14.73;;;;;;;9.47;85.86;91090.09;5016835;28;20017;-85
2021/08/17 01:08:36;;;;;;;32.45;14.90;;;;;;;9.37;86.33;91093.09;4998799;28;20053;-85
2021/08/17 01:11:11;;;;;;;37.97;15.88;;;;;;;9.34;86.58;91095.22;4982052;28;20050;-85
2021/08/17 01:13:45;;;;;;;36.15;15.43;;;;;;;9.15;86.17;91105.28;5013849;28;20046;-87
2021/08/17 01:16:21;;;;;;;36.78;16.17;;;;;;;9.12;87.25;91102.53;5033111;28;20048;-86
2021/08/17 01:18:59;;;;;;;37.67;15.82;;;;;;;9.17;86.11;91102.34;5003208;28;20385;-86
2021/08/17 01:21:33;;;;;;;36.92;14.93;;;;;;;9.30;84.92;91103.97;5019905;28;20025;-85
2021/08/17 01:24:07;;;;;;;37.50;15.48;;;;;;;9.28;86.56;91098.31;5020706;28;20397;-85
2021/08/17 01:26:41;;;;;;;34.83;15.95;;;;;;;9.27;85.62;91104.59;5011837;28;20025;-90
2021/08/17 01:29:23;;;;;;;42.63;15.70;;;;;;;9.22;86.27;91104.78;5015041;28;20045;-86
2021/08/17 01:31:56;;;;;;;35.25;15.43;;;;;;;9.23;85.17;91116.72;5017658;28;20033;-87
2021/08/17 01:34:28;;;;;;;37.63;15.85;;;;;;;9.17;85.31;91116.13;5017875;28;20029;-86
2021/08/17 01:37:01;;;;;;;40.22;15.90;;;;;;;9.26;84.58;91108.28;4985128;28;20026;-85
2021/08/17 01:39:39;;;;;;;36.67;15.10;;;;;;;9.22;84.77;91108.16;5001215;28;20026;-85
2021/08/17 01:42:18;;;;;;;40.42;15.00;;;;;;;9.13;84.16;91115.22;5016536;28;20083;-85
2021/08/17 01:44:56;;;;;;;36.30;14.73;;;;;;;9.04;85.17;91117.84;4987119;28;20026;-88
2021/08/17 01:47:34;;;;;;;30.40;13.40;;;;;;;9.04;85.40;91117.84;5017980;28;20018;-86
2021/08/17 01:50:10;;;;;;;37.60;15.13;;;;;;;8.97;85.08;91122.78;5001560;28;20045;-85
2021/08/17 01:52:41;;;;;;;33.72;14.82;;;;;;;9.06;82.94;91125.34;5001749;28;20393;-86
2021/08/17 01:55:13;;;;;;;34.97;14.40;;;;;;;8.91;86.05;91118.09;4985081;28;20025;-85
2021/08/17 01:57:55;;;;;;;34.83;14.60;;;;;;;9.00;84.09;91129.19;4985337;28;20629;-83
2021/08/17 02:00:35;;;;;;;34.50;14.43;;;;;;;8.88;84.58;91118.72;5017368;28;20045;-85
2021/08/17 02:03:17;;;;;;;32.33;13.95;;;;;;;8.82;84.99;91121.47;5002908;28;20021;-87
2021/08/17 02:05:50;;;;;;;31.55;13.27;;;;;;;8.82;85.64;91125.91;5002340;28;20025;-85
2021/08/17 02:08:33;;;;;;;31.25;13.90;;;;;;;8.98;84.61;91129.50;5001632;28;20030;-86
2021/08/17 02:11:02;;;;;;;31.15;13.45;;;;;;;8.75;86.17;91117.81;5019235;28;20481;-85
2021/08/17 02:13:37;;;;;;;32.80;13.60;;;;;;;8.86;86.83;91132.75;5002071;28;20033;-86
2021/08/17 02:16:14;;;;;;;29.42;12.48;;;;;;;8.96;85.65;91131.66;5002679;28;20021;-87
2021/08/17 02:18:52;;;;;;;25.15;11.90;;;;;;;8.84;84.83;91123.75;5017872;28;20029;-84
2021/08/17 02:21:28;;;;;;;28.58;11.88;;;;;;;8.96;84.89;91129.06;5001188;28;20022;-87
2021/08/17 02:24:10;;;;;;;27.30;11.73;;;;;;;8.92;84.42;91125.56;5019051;28;20106;-87
2021/08/17 02:26:45;;;;;;;25.08;11.43;;;;;;;8.89;84.31;91123.56;5003073;28;20025;-85
2021/08/17 02:29:23;;;;;;;25.70;11.13;;;;;;;8.87;83.73;91123.16;5002817;28;20481;-85
2021/08/17 02:31:59;;;;;;;28.73;12.27;;;;;;;8.86;85.57;91124.19;5003497;28;20033;-85
2021/08/17 02:34:37;;;;;;;24.95;10.90;;;;;;;8.94;84.84;91133.03;5003647;28;20048;-87
2021/08/17 02:37:12;;;;;;;21.90;10.25;;;;;;;8.82;85.97;91131.09;5003163;28;20017;-85
2021/08/17 02:39:40;;;;;;;23.92;11.05;;;;;;;8.85;86.64;91125.28;5003462;28;20060;-86
2021/08/17 02:42:17;;;;;;;26.95;11.23;;;;;;;8.83;85.85;91125.59;5003258;28;20121;-87
2021/08/17 02:44:55;;;;;;;22.73;10.80;;;;;;;8.79;85.00;91134.31;4988198;28;20029;-87
2021/08/17 02:47:34;;;;;;;20.15;8.35;;;;;;;8.81;84.42;91126.97;5004061;28;20017;-86
2021/08/17 02:50:08;;;;;;;21.15;9.40;;;;;;;8.77;85.77;91131.28;4987969;28;20036;-87
2021/08/17 02:52:44;;;;;;;24.23;9.65;;;;;;;8.75;85.03;91128.22;4988225;28;20064;-88
2021/08/17 02:55:21;;;;;;;23.38;9.63;;;;;;;8.77;85.93;91126.09;5004620;28;20033;-86
2021/08/17 02:58:07;;;;;;;19.25;9.10;;;;;;;8.76;85.18;91132.34;5005534;28;20025;-86
2021/08/17 03:00:44;;;;;;;19.05;9.43;;;;;;;8.74;85.38;91134.50;4989179;28;20494;-87
2021/08/17 03:03:22;;;;;;;21.25;9.07;;;;;;;8.73;85.68;91135.56;4989992;28;20025;-87
2021/08/17 03:05:56;;;;;;;23.85;9.30;;;;;;;8.61;86.16;91121.38;5005594;28;20029;-88
2021/08/17 03:08:31;;;;;;;23.20;9.73;;;;;;;8.57;86.74;91130.88;5005065;28;20025;-87
2021/08/17 03:11:08;;;;;;;24.85;9.80;;;;;;;8.53;87.04;91135.16;5006869;28;20282;-87
2021/08/17 03:13:45;;;;;;;24.75;11.32;;;;;;;8.59;87.12;91128.72;5022044;28;20021;-88
2021/08/17 03:16:26;;;;;;;20.98;8.30;;;;;;;8.54;86.22;91122.94;5026095;28;20044;-87
2021/08/17 03:19:02;;;;;;;20.88;8.82;;;;;;;8.50;86.64;91122.78;5022883;28;20013;-85
2021/08/17 03:21:36;;;;;;;21.02;9.02;;;;;;;8.46;86.55;91116.69;5000537;28;20123;-85
2021/08/17 03:24:13;;;;;;;18.60;8.07;;;;;;;8.53;87.10;91118.81;4999335;28;20033;-85
2021/08/17 03:26:56;;;;;;;19.65;8.90;;;;;;;8.55;87.01;91117.44;4999391;28;20033;-85
2021/08/17 03:29:30;;;;;;;19.10;8.15;;;;;;;8.55;87.27;91111.44;4999309;28;20021;-86
2021/08/17 03:32:07;;;;;;;21.38;9.70;;;;;;;8.43;87.44;91104.31;4998949;28;20112;-85
2021/08/17 03:34:44;;;;;;;24.00;10.43;;;;;;;8.47;87.68;91110.41;4999812;28;20034;-85
2021/08/17 03:37:26;;;;;;;22.17;9.27;;;;;;;8.41;88.27;91106.47;4998174;28;20036;-85
2021/08/17 03:40:03;;;;;;;24.00;9.30;;;;;;;8.46;87.86;91108.91;5031712;28;20056;-85
2021/08/17 03:42:45;;;;;;;16.75;7.90;;;;;;;8.56;86.54;91108.56;5015346;28;20021;-85
2021/08/17 03:45:21;;;;;;;20.10;8.43;;;;;;;8.51;85.24;91116.50;5065234;23;20049;-87
2021/08/17 03:47:57;;;;;;;19.15;8.18;;;;;;;8.34;85.84;91114.69;5017539;28;20039;-88
2021/08/17 03:50:38;;;;;;;23.67;9.18;;;;;;;8.34;87.26;91116.53;5033623;28;20071;-87
2021/08/17 03:53:16;;;;;;;18.02;8.10;;;;;;;8.28;87.79;91115.16;5034961;28;20025;-87
2021/08/17 03:55:47;;;;;;;19.30;8.73;;;;;;;8.28;87.36;91113.34;5018129;28;20028;-88
2021/08/17 03:58:25;;;;;;;18.52;7.70;;;;;;;8.38;85.57;91117.47;5001394;28;20021;-88
2021/08/17 04:01:00;;;;;;;19.45;8.20;;;;;;;8.27;86.33;91116.22;4997140;28;20663;-87
2021/08/17 04:03:37;;;;;;;16.15;7.53;;;;;;;8.22;85.95;91108.59;4998051;28;20022;-87
2021/08/17 04:06:12;;;;;;;18.42;7.55;;;;;;;8.31;84.85;91106.78;5001279;28;20032;-87
2021/08/17 04:08:47;;;;;;;19.35;8.73;;;;;;;8.07;85.72;91100.22;4985807;28;20039;-89
2021/08/17 04:11:28;;;;;;;16.52;8.00;;;;;;;8.18;85.65;91112.91;5035012;28;20444;-88
2021/08/17 04:14:06;;;;;;;18.85;8.38;;;;;;;8.02;85.70;91110.78;4985749;28;20044;-88
2021/08/17 04:16:44;;;;;;;18.05;8.30;;;;;;;7.97;86.48;91123.13;5017325;28;20025;-87
2021/08/17 04:19:20;;;;;;;22.10;8.30;;;;;;;7.88;85.25;91120.56;5002224;28;20025;-88
2021/08/17 04:21:56;;;;;;;22.13;8.35;;;;;;;7.73;86.37;91108.03;5018608;28;20021;-88
2021/08/17 04:24:29;;;;;;;17.52;8.05;;;;;;;7.87;85.36;91119.00;5017426;28;20032;-87
2021/08/17 04:27:11;;;;;;;18.83;8.30;;;;;;;7.75;85.88;91121.47;5017200;28;20040;-87
2021/08/17 04:29:44;;;;;;;17.00;7.80;;;;;;;7.66;86.04;91124.03;5053589;28;20040;-87
2021/08/17 04:32:21;;;;;;;19.38;8.05;;;;;;;7.63;86.38;91133.22;5037158;28;20412;-87
2021/08/17 04:34:57;;;;;;;23.67;8.57;;;;;;;7.56;86.99;91132.91;5036478;28;20060;-88
2021/08/17 04:37:37;;;;;;;22.10;8.27;;;;;;;7.53;86.77;91128.31;5037444;28;20021;-87
2021/08/17 04:40:12;;;;;;;17.00;8.45;;;;;;;7.55;87.47;91123.56;5020072;28;20439;-87
2021/08/17 04:42:41;;;;;;;18.77;8.15;;;;;;;7.44;87.32;91114.56;5020213;28;20025;-88
2021/08/17 04:45:19;;;;;;;16.77;8.13;;;;;;;7.48;87.29;91120.66;5036604;28;20036;-88
2021/08/17 04:48:03;;;;;;;17.73;7.75;;;;;;;7.42;87.53;91114.88;5036614;28;20491;-87
2021/08/17 04:50:38;;;;;;;16.33;6.90;;;;;;;7.49;86.96;91129.22;5036177;28;20484;-87
2021/08/17 04:53:13;;;;;;;17.83;7.35;;;;;;;7.47;87.00;91121.75;5020262;28;20120;-88
2021/08/17 04:55:43;;;;;;;19.33;8.32;;;;;;;7.49;86.67;91122.22;5020110;28;20029;-87
2021/08/17 04:58:19;;;;;;;16.33;7.45;;;;;;;7.42;86.19;91117.47;5036648;28;20088;-87
2021/08/17 05:00:57;;;;;;;16.48;7.22;;;;;;;7.44;86.24;91127.53;5019503;28;20081;-87
2021/08/17 05:03:32;;;;;;;18.50;7.82;;;;;;;7.48;86.35;91127.69;5020279;28;20377;-87
2021/08/17 05:06:03;;;;;;;20.38;7.30;;;;;;;7.46;86.76;91135.78;5036258;28;20025;-88
2021/08/17 05:08:36;;;;;;;17.20;7.30;;;;;;;7.44;87.18;91148.28;5036887;28;20033;-87
2021/08/17 05:11:09;;;;;;;19.92;6.90;;;;;;;7.26;87.51;91131.94;5036287;28;20028;-88
2021/08/17 05:13:51;;;;;;;23.77;8.18;;;;;;;7.30;87.40;91137.28;5036670;28;20457;-87
2021/08/17 05:16:25;;;;;;;18.45;7.78;;;;;;;7.36;87.16;91146.44;5036621;28;20028;-88
2021/08/17 05:18:59;;;;;;;20.10;8.43;;;;;;;7.33;87.55;91155.56;5021074;28;20032;-87
2021/08/17 05:21:28;;;;;;;18.52;7.63;;;;;;;7.34;87.71;91156.34;5018761;28;20119;-87
2021/08/17 05:24:02;;;;;;;21.40;7.78;;;;;;;7.51;89.21;91158.97;5034872;28;20028;-88
2021/08/17 05:26:35;;;;;;;20.90;8.65;;;;;;;7.58;87.58;91163.72;5047017;28;20492;-88
2021/08/17 05:29:07;;;;;;;15.80;7.60;;;;;;;7.51;87.51;91155.63;5019875;28;20024;-88
2021/08/17 05:31:41;;;;;;;17.92;7.28;;;;;;;7.77;86.29;91166.00;5003586;28;20570;-87
2021/08/17 05:34:20;;;;;;;16.08;7.03;;;;;;;7.59;86.48;91160.81;5004242;28;20035;-87
2021/08/17 05:36:50;;;;;;;18.00;7.75;;;;;;;7.70;87.17;91163.09;5008680;28;20032;-88
2021/08/17 05:39:29;;;;;;;17.83;7.55;;;;;;;7.75;87.38;91160.38;5007154;28;20028;-88
2021/08/17 05:42:08;;;;;;;17.90;7.18;;;;;;;7.70;86.86;91160.50;5005275;28;20025;-87
2021/08/17 05:44:41;;;;;;;19.42;7.60;;;;;;;7.71;87.48;91162.06;5040681;28;20035;-88
2021/08/17 05:47:17;;;;;;;13.25;6.60;;;;;;;7.92;86.21;91172.63;5033649;28;20048;-89
2021/08/17 05:49:55;;;;;;;16.02;7.10;;;;;;;7.94;86.42;91184.19;5029963;28;20029;-90
2021/08/17 05:52:32;;;;;;;20.08;7.15;;;;;;;8.05;86.19;91188.00;5017955;28;20055;-87
2021/08/17 05:55:11;;;;;;;17.45;7.40;;;;;;;8.03;86.41;91186.81;5039238;28;20189;-87
2021/08/17 05:57:46;;;;;;;17.85;6.93;;;;;;;8.10;86.33;91179.31;5062348;28;20021;-90
2021/08/17 06:00:22;;;;;;;16.95;6.38;;;;;;;8.19;85.95;91181.91;5045378;28;20017;-89
2021/08/17 06:03:00;;;;;;;17.02;7.07;;;;;;;8.14;86.82;91177.66;5022278;28;20116;-87
2021/08/17 06:05:36;;;;;;;16.20;7.10;;;;;;;8.22;86.74;91176.88;5004070;28;20033;-87
2021/08/17 06:08:15;;;;;;;15.70;7.10;;;;;;;8.47;86.91;91172.75;5019763;28;20116;-86
2021/08/17 06:10:48;;;;;;;17.45;6.82;;;;;;;8.52;87.58;91174.44;5003239;28;20021;-88
2021/08/17 06:13:29;;;;;;;16.13;6.25;;;;;;;8.55;83.91;91182.38;5035877;28;20017;-87
2021/08/17 06:16:05;;;;;;;17.45;7.10;;;;;;;8.49;85.51;91190.63;5054455;28;20045;-87
2021/08/17 06:18:43;;;;;;;17.17;6.78;;;;;;;8.67;87.19;91188.78;5036390;28;20029;-87
2021/08/17 06:21:20;;;;;;;18.88;7.57;;;;;;;8.84;81.46;91207.69;5018831;28;20039;-87
2021/08/17 06:23:59;;;;;;;18.38;7.50;;;;;;;8.70;81.63;91207.09;5018478;28;20405;-87
2021/08/17 06:26:35;;;;;;;15.90;7.07;;;;;;;8.78;83.54;91205.56;5027217;28;20026;-88
2021/08/17 06:29:11;;;;;;;21.02;9.68;;;;;;;8.96;83.74;91204.44;5002044;28;20067;-88
2021/08/17 06:31:50;;;;;;;18.90;8.15;;;;;;;8.89;81.83;91204.16;5016896;28;20021;-87
2021/08/17 06:34:29;;;;;;;20.75;8.93;;;;;;;9.05;83.78;91212.22;5002540;28;20029;-87
2021/08/17 06:37:02;;;;;;;19.30;8.18;;;;;;;9.19;83.24;91196.44;5007276;28;20478;-87
2021/08/17 06:39:39;;;;;;;20.55;8.18;;;;;;;9.28;84.86;91197.13;5003683;28;20030;-87
2021/08/17 06:42:16;;;;;;;19.20;8.77;;;;;;;9.43;80.94;91199.22;4999065;28;20025;-88
2021/08/17 06:44:50;;;;;;;20.67;8.40;;;;;;;9.28;81.76;91205.69;5031342;28;20026;-85
2021/08/17 06:47:27;;;;;;;21.15;9.68;;;;;;;9.45;79.27;91204.13;5025755;28;20025;-87
2021/08/17 06:50:05;;;;;;;22.60;10.32;;;;;;;9.45;81.12;91220.47;5016034;28;20033;-87
2021/08/17 06:52:41;;;;;;;28.30;10.60;;;;;;;9.39;80.47;91206.13;5015963;28;20045;-88
2021/08/17 06:55:16;;;;;;;25.13;10.18;;;;;;;9.52;82.11;91215.53;5015778;28;20025;-87
2021/08/17 06:57:50;;;;;;;25.50;11.07;;;;;;;9.56;81.04;91200.84;5001636;28;20396;-87
2021/08/17 07:00:18;;;;;;;21.63;9.40;;;;;;;9.78;78.92;91191.22;5011530;28;20087;-87
2021/08/17 07:02:50;;;;;;;21.80;9.75;;;;;;;9.62;80.08;91179.84;5013890;28;20025;-87
2021/08/17 07:05:15;;;;;;;23.67;9.05;;;;;;;9.67;79.57;91179.66;5032237;28;20025;-87
2021/08/17 07:07:43;;;;;;;25.10;9.75;;;;;;;9.94;80.03;91184.38;5017901;28;20397;-88
2021/08/17 07:10:10;;;;;;;18.45;8.50;;;;;;;10.12;74.47;91184.28;5050549;28;20074;-86
2021/08/17 07:12:38;;;;;;;20.75;8.73;;;;;;;9.97;76.84;91196.78;5050718;28;20020;-86
2021/08/17 07:15:08;;;;;;;18.15;8.95;;;;;;;10.10;78.08;91204.66;5033286;28;20481;-87
2021/08/17 07:17:36;;;;;;;19.10;8.57;;;;;;;10.24;77.83;91202.56;5019177;28;20106;-86
2021/08/17 07:20:04;;;;;;;22.58;8.95;;;;;;;10.24;75.84;91194.75;5043756;28;20040;-87
2021/08/17 07:22:31;;;;;;;19.52;8.65;;;;;;;10.31;77.22;91197.63;5033181;28;20021;-87
2021/08/17 07:24:57;;;;;;;22.42;9.38;;;;;;;10.31;76.08;91196.88;5017227;28;20318;-87
2021/08/17 07:27:24;;;;;;;24.10;9.10;;;;;;;10.19;76.21;91179.31;5017149;28;20040;-87
2021/08/17 07:29:52;;;;;;;24.33;8.50;;;;;;;10.37;75.92;91185.94;5033025;28;20020;-87
2021/08/17 07:32:19;;;;;;;21.00;8.70;;;;;;;10.49;73.67;91198.25;5049900;28;20488;-87
2021/08/17 07:34:45;;;;;;;17.98;8.23;;;;;;;10.71;72.89;91191.94;5033119;28;20031;-87
2021/08/17 07:37:11;;;;;;;19.08;7.95;;;;;;;10.88;74.89;91193.59;5016328;28;20029;-87
2021/08/17 07:39:38;;;;;;;22.90;8.32;;;;;;;10.82;71.44;91187.84;5050033;28;20516;-88
2021/08/17 07:42:04;;;;;;;18.48;7.97;;;;;;;11.02;71.45;91204.50;5048471;28;20024;-88
2021/08/17 07:44:31;;;;;;;19.45;8.52;;;;;;;11.14;70.91;91203.78;5032913;28;20391;-87
2021/08/17 07:46:58;;;;;;;19.83;8.82;;;;;;;11.16;73.09;91199.72;5032869;28;20024;-87
2021/08/17 07:49:24;;;;;;;20.90;8.40;;;;;;;11.20;71.50;91210.28;5049548;28;20052;-88
2021/08/17 07:51:50;;;;;;;18.25;8.40;;;;;;;11.25;71.59;91212.69;5031092;28;20025;-88
2021/08/17 07:54:15;;;;;;;21.58;8.30;;;;;;;11.41;76.33;91216.19;5016101;28;20500;-88
2021/08/17 07:56:42;;;;;;;19.80;9.05;;;;;;;11.68;73.79;91227.06;5033009;28;20543;-88
2021/08/17 07:59:08;;;;;;;20.17;9.23;;;;;;;11.62;73.10;91228.38;5033294;28;20064;-88
2021/08/17 08:01:34;;;;;;;25.52;9.85;;;;;;;11.68;72.78;91227.84;5016653;28;20025;-88
2021/08/17 08:04:00;;;;;;;24.10;10.32;;;;;;;11.68;76.99;91211.41;5049610;28;20111;-88
2021/08/17 08:06:27;;;;;;;20.88;9.18;;;;;;;11.81;75.21;91228.59;5032799;28;20055;-88
2021/08/17 08:08:53;;;;;;;21.42;9.90;;;;;;;11.70;73.74;91217.09;5032997;28;20016;-88
2021/08/17 08:11:18;;;;;;;22.00;9.98;;;;;;;11.76;72.72;91226.19;5032414;28;20208;-89
2021/08/17 08:13:44;;;;;;;19.02;8.15;;;;;;;11.88;72.92;91230.69;5032889;28;20361;-87
2021/08/17 08:16:10;;;;;;;19.77;8.52;;;;;;;11.77;70.16;91232.97;5033118;28;20478;-86
2021/08/17 08:18:35;;;;;;;19.50;8.02;;;;;;;11.77;71.13;91232.97;5033083;28;20094;-86
2021/08/17 08:21:01;;;;;;;19.83;8.75;;;;;;;11.73;71.86;91232.06;5034705;28;20126;-87
2021/08/17 08:23:26;;;;;;;21.13;8.40;;;;;;;11.84;71.04;91229.84;5033968;28;20033;-88
2021/08/17 08:25:52;;;;;;;19.17;8.40;;;;;;;11.88;72.31;91218.41;5033088;28;20033;-89
2021/08/17 08:28:17;;;;;;;18.65;8.43;;;;;;;11.96;72.53;91220.13;5049285;28;20025;-88
2021/08/17 08:30:43;;;;;;;22.20;9.02;;;;;;;11.98;73.15;91217.22;5032910;28;20027;-87
2021/08/17 08:33:08;;;;;;;23.45;8.82;;;;;;;12.09;72.27;91209.69;5016769;28;20028;-88
2021/08/17 08:35:34;;;;;;;22.23;9.13;;;;;;;12.32;72.68;91212.56;5033284;28;20082;-88
2021/08/17 08:37:59;;;;;;;19.85;9.23;;;;;;;12.51;71.22;91211.94;5049336;28;20029;-88
2021/08/17 08:40:29;;;;;;;20.08;9.40;;;;;;;12.60;70.44;91215.19;5032859;28;20098;-88
2021/08/17 08:42:54;;;;;;;21.83;10.25;;;;;;;12.37;68.03;91212.34;5015985;28;20029;-87
2021/08/17 08:45:20;;;;;;;17.98;8.52;;;;;;;12.40;71.09;91217.66;5032736;28;20029;-87
2021/08/17 08:47:45;;;;;;;69.43;23.35;;;;;;;12.63;72.27;91219.75;5032712;28;20071;-88
2021/08/17 08:50:11;;;;;;;25.27;10.35;;;;;;;12.73;68.18;91203.59;5048451;28;20067;-87
2021/08/17 08:52:40;;;;;;;22.02;9.32;;;;;;;12.60;66.94;91213.34;5019330;28;20051;-89
2021/08/17 08:55:07;;;;;;;23.02;10.55;;;;;;;12.69;68.69;91200.13;5052351;28;20066;-88
2021/08/17 08:57:32;;;;;;;22.83;10.75;;;;;;;12.61;69.61;91203.63;5019491;28;20036;-88
2021/08/17 09:00:01;;;;;;;18.13;8.95;;;;;;;12.66;68.02;91208.66;5035886;28;20025;-88
2021/08/17 09:02:29;;;;;;;28.48;10.02;;;;;;;12.76;68.79;91226.47;5035983;28;20443;-87
2021/08/17 09:04:55;;;;;;;21.67;8.73;;;;;;;12.57;65.46;91226.31;5019331;28;20024;-87
2021/08/17 09:07:35;;;;;;;21.55;8.93;;;;;;;12.65;65.26;91228.06;5019520;28;20530;-88
2021/08/17 09:10:26;;;;;;;17.77;8.32;;;;;;;12.69;65.20;91228.91;5035642;28;20029;-87
2021/08/17 09:12:54;;;;;;;18.88;8.68;;;;;;;12.65;64.89;91226.19;5026539;28;20041;-88
2021/08/17 09:15:27;;;;;;;21.35;8.95;;;;;;;12.67;67.15;91225.84;5019518;28;20025;-88
2021/08/17 09:18:07;;;;;;;19.27;8.75;;;;;;;12.46;67.37;91233.09;5019966;28;20098;-88
2021/08/17 09:20:40;;;;;;;21.67;9.27;;;;;;;12.36;68.95;91227.25;5036176;28;20021;-88
2021/08/17 09:23:24;;;;;;;20.77;8.98;;;;;;;12.61;65.03;91222.69;5020607;28;20049;-87
2021/08/17 09:25:51;;;;;;;22.80;9.48;;;;;;;12.68;65.43;91219.50;5059411;28;20040;-88
2021/08/17 09:28:28;;;;;;;19.55;8.73;;;;;;;12.81;65.55;91221.00;5030399;28;20017;-88
2021/08/17 09:30:54;;;;;;;22.10;9.73;;;;;;;13.05;65.43;91224.59;5039531;28;20029;-88
2021/08/17 09:33:24;;;;;;;22.75;10.32;;;;;;;13.53;62.99;91212.34;5019512;28;20025;-88
2021/08/17 09:36:00;;;;;;;19.52;8.68;;;;;;;13.16;65.55;91209.94;5035298;28;20401;-88
2021/08/17 09:38:31;;;;;;;21.73;9.20;;;;;;;13.50;66.93;91205.16;5019575;28;20028;-88
2021/08/17 09:40:57;;;;;;;18.98;9.02;;;;;;;13.61;63.86;91188.63;5018420;28;20021;-88
2021/08/17 09:43:23;;;;;;;22.73;9.85;;;;;;;13.79;67.49;91198.75;5018709;28;20496;-88
2021/08/17 09:45:53;;;;;;;24.02;10.63;;;;;;;14.24;68.18;91192.19;5097814;23;20098;-86
2021/08/17 09:48:30;;;;;;;19.75;9.52;;;;;;;14.41;68.22;91201.53;5062436;28;20030;-87
2021/08/17 09:51:00;;;;;;;22.30;10.23;;;;;;;13.94;60.19;91205.06;5061526;28;20044;-86
2021/08/17 09:53:31;;;;;;;21.25;9.98;;;;;;;13.51;62.17;91209.31;5062684;28;20032;-87
2021/08/17 09:55:59;;;;;;;19.63;10.05;;;;;;;13.18;61.04;91207.75;5063980;28;20024;-87
2021/08/17 09:58:31;;;;;;;23.10;10.20;;;;;;;12.92;61.88;91206.34;5060092;28;20024;-86
2021/08/17 10:01:08;;;;;;;21.85;10.02;;;;;;;13.06;63.97;91194.72;5038543;28;20492;-86
2021/08/17 10:03:38;;;;;;;22.15;10.43;;;;;;;13.07;62.26;91201.47;5041005;28;20035;-86
2021/08/17 10:06:06;;;;;;;21.10;8.82;;;;;;;13.20;61.97;91200.31;5057560;28;20054;-85
2021/08/17 10:08:32;;;;;;;20.05;9.40;;;;;;;13.23;61.54;91202.25;5057101;28;20021;-86
2021/08/17 10:11:00;;;;;;;19.90;8.98;;;;;;;13.36;63.23;91208.22;5041098;28;20071;-86
2021/08/17 10:13:28;;;;;;;20.75;9.68;;;;;;;13.71;62.61;91210.13;5040917;28;20027;-86
2021/08/17 10:15:55;;;;;;;21.50;9.25;;;;;;;13.74;63.01;91212.84;5041899;28;20473;-87
2021/08/17 10:18:32;;;;;;;18.88;8.68;;;;;;;13.83;63.96;91210.06;5040825;28;20472;-86
2021/08/17 10:21:00;;;;;;;21.25;10.15;;;;;;;13.92;62.31;91205.38;5041971;28;20209;-86
2021/08/17 10:23:27;;;;;;;20.00;9.32;;;;;;;13.76;62.13;91210.66;5040677;28;20062;-86
2021/08/17 10:25:57;;;;;;;17.73;8.48;;;;;;;13.45;62.27;91215.91;5024299;28;20471;-86
2021/08/17 10:28:26;;;;;;;21.30;9.52;;;;;;;13.36;61.68;91203.75;5057181;28;20035;-86
2021/08/17 10:30:56;;;;;;;21.85;9.57;;;;;;;13.23;62.16;91204.13;5057957;28;20021;-85
2021/08/17 10:33:41;;;;;;;18.98;8.95;;;;;;;13.64;63.85;91205.50;5040051;28;20029;-86
2021/08/17 10:36:11;;;;;;;19.83;9.27;;;;;;;13.95;63.37;91191.59;5039738;28;20051;-86
2021/08/17 10:38:39;;;;;;;18.95;8.65;;;;;;;14.11;59.94;91186.34;5040718;28;20025;-85
2021/08/17 10:41:06;;;;;;;18.60;8.38;;;;;;;14.35;59.16;91178.22;5039115;28;20392;-86
2021/08/17 10:43:37;;;;;;;18.10;9.20;;;;;;;14.58;58.88;91183.56;5040743;28;20028;-86
2021/08/17 10:46:06;;;;;;;15.88;7.93;;;;;;;14.85;58.28;91180.31;5057531;28;20561;-86
2021/08/17 10:48:48;;;;;;;16.85;8.20;;;;;;;14.79;57.35;91174.59;5038974;28;20024;-86
2021/08/17 10:51:20;;;;;;;16.75;8.20;;;;;;;15.20;56.58;91180.94;5072782;28;20093;-86
2021/08/17 10:53:57;;;;;;;16.65;8.65;;;;;;;14.93;56.17;91174.84;5054776;28;20085;-86
2021/08/17 10:56:27;;;;;;;16.30;7.85;;;;;;;14.84;57.57;91166.47;5053967;28;20111;-84
2021/08/17 10:58:56;;;;;;;20.02;8.32;;;;;;;14.79;57.57;91164.84;5040507;28;20400;-88
2021/08/17 11:01:32;;;;;;;16.73;7.78;;;;;;;14.78;57.95;91168.59;5041740;28;20081;-86
2021/08/17 11:04:06;;;;;;;16.90;8.48;;;;;;;14.87;58.61;91160.50;5059973;28;20036;-86
2021/08/17 11:06:54;;;;;;;19.90;9.25;;;;;;;14.53;54.32;91157.63;5041644;28;20035;-86
2021/08/17 11:09:30;;;;;;;15.65;7.75;;;;;;;14.39;54.30;91161.81;5039892;28;20100;-86
2021/08/17 11:12:07;;;;;;;18.85;8.02;;;;;;;14.73;56.00;91150.50;5039326;28;20025;-85
2021/08/17 11:14:35;;;;;;;19.83;8.50;;;;;;;14.89;56.19;91153.03;5023810;28;20392;-86
2021/08/17 11:17:02;;;;;;;15.10;7.50;;;;;;;15.20;55.81;91140.81;5039756;28;20021;-86
2021/08/17 11:19:30;;;;;;;15.20;7.97;;;;;;;15.06;51.90;91149.22;5039237;28;20028;-85
2021/08/17 11:21:57;;;;;;;17.63;7.78;;;;;;;14.86;53.54;91143.25;5022599;28;20480;-85
2021/08/17 11:24:26;;;;;;;18.67;8.25;;;;;;;14.83;53.08;91146.56;5038831;28;20038;-86
2021/08/17 11:27:00;;;;;;;17.77;8.00;;;;;;;15.13;55.07;91141.47;5055049;28;20495;-85
2021/08/17 11:29:39;;;;;;;15.55;7.95;;;;;;;15.25;52.16;91143.91;5039105;28;20048;-85
2021/08/17 11:32:07;;;;;;;17.15;8.27;;;;;;;15.71;49.63;91141.25;5039049;28;20051;-85
2021/08/17 11:34:37;;;;;;;15.27;7.60;;;;;;;15.83;48.07;91142.94;5038845;28;20488;-87
2021/08/17 11:37:07;;;;;;;13.57;6.32;;;;;;;15.76;46.22;91140.97;5040118;28;20104;-86
2021/08/17 11:39:37;;;;;;;15.25;7.70;;;;;;;15.72;49.68;91128.88;5055390;28;20031;-85
2021/08/17 11:42:16;;;;;;;17.65;8.80;;;;;;;15.84;53.74;91139.19;5073248;28;20086;-85
2021/08/17 11:44:46;;;;;;;14.68;7.60;;;;;;;15.95;46.70;91137.47;5064595;28;20028;-87
2021/08/17 11:47:13;;;;;;;17.35;8.30;;;;;;;15.99;50.10;91137.53;5043470;28;20020;-85
2021/08/17 11:49:39;;;;;;;231.95;63.13;;;;;;;16.50;47.44;91134.38;5039103;28;20484;-86
2021/08/17 11:52:09;;;;;;;15.27;7.38;;;;;;;16.41;49.39;91139.94;5040595;28;20457;-86
2021/08/17 11:54:46;;;;;;;16.38;7.32;;;;;;;15.83;49.00;91136.91;5039810;28;20033;-84